Time;durP1;ratioP1;P1;durP2;ratioP2;P2;SDS_P1;SDS_P2;PMS_P1;PMS_P2;Temp;Humidity;BMP_temperature;BMP_pressure;BME280_temperature;BME280_humidity;BME280_pressure;Samples;Min_cycle;Max_cycle;Signal;HPM_P1;HPM_P2
2021/06/01 00:01:40;;;;;;;11.45;3.67;;;15.50;63.10;;;;;;5102078;27;20482;-78
2021/06/01 00:04:07;;;;;;;6.50;2.60;;;15.40;62.90;;;;;;5102205;28;20038;-80
2021/06/01 00:06:33;;;;;;;6.40;2.53;;;15.40;62.90;;;;;;5104511;28;20050;-77
2021/06/01 00:08:59;;;;;;;3.72;2.60;;;15.40;63.10;;;;;;5103664;28;20508;-78
2021/06/01 00:11:25;;;;;;;3.17;2.10;;;15.30;63.20;;;;;;5099965;28;20111;-77
2021/06/01 00:13:51;;;;;;;3.80;2.40;;;15.20;63.70;;;;;;5104728;28;20019;-78
2021/06/01 00:16:17;;;;;;;2.65;1.92;;;15.30;63.70;;;;;;5098095;28;20035;-77
2021/06/01 00:18:44;;;;;;;4.90;2.20;;;15.20;63.70;;;;;;5103177;28;20024;-78
2021/06/01 00:21:12;;;;;;;4.03;2.22;;;15.20;63.70;;;;;;5099198;28;20017;-77
2021/06/01 00:23:38;;;;;;;3.10;2.10;;;16.20;64.70;;;;;;5099473;28;20137;-77
2021/06/01 00:26:11;;;;;;;3.42;2.10;;;15.30;64.20;;;;;;5102280;28;20035;-79
2021/06/01 00:28:37;;;;;;;3.20;2.00;;;15.20;63.50;;;;;;5104925;28;20062;-78
2021/06/01 00:31:04;;;;;;;3.35;2.10;;;15.20;63.90;;;;;;5104176;28;20103;-78
2021/06/01 00:33:30;;;;;;;3.50;2.10;;;15.20;64.00;;;;;;5097142;28;20085;-76
2021/06/01 00:35:56;;;;;;;3.20;2.13;;;15.00;64.40;;;;;;5102037;28;20024;-77
2021/06/01 00:38:22;;;;;;;4.70;2.40;;;15.00;64.70;;;;;;5097880;28;20094;-78
2021/06/01 00:40:47;;;;;;;4.45;2.17;;;15.00;64.90;;;;;;5099969;28;20027;-78
2021/06/01 00:43:13;;;;;;;4.43;2.50;;;16.10;65.80;;;;;;5099987;28;20036;-78
2021/06/01 00:45:41;;;;;;;3.58;2.22;;;14.80;65.40;;;;;;5097313;28;20046;-76
2021/06/01 00:48:09;;;;;;;3.95;2.20;;;14.70;65.50;;;;;;5116594;27;20024;-79
2021/06/01 00:50:36;;;;;;;6.07;2.90;;;14.70;65.60;;;;;;5103176;28;20035;-77
2021/06/01 00:53:01;;;;;;;3.25;2.40;;;14.70;65.50;;;;;;5099877;28;20522;-78
2021/06/01 00:55:27;;;;;;;6.03;2.78;;;14.70;65.60;;;;;;5102380;28;20134;-78
2021/06/01 00:57:56;;;;;;;5.30;2.50;;;14.70;66.00;;;;;;5102730;28;20033;-77
2021/06/01 01:02:55;;;;;;;5.60;2.40;;;14.70;65.30;;;;;;5100143;28;20505;-79
2021/06/01 01:05:24;;;;;;;3.72;2.78;;;14.70;65.70;;;;;;5087606;28;20124;-78
2021/06/01 01:08:20;;;;;;;4.57;2.35;;;14.70;66.10;;;;;;5085064;28;20062;-78
2021/06/01 01:10:49;;;;;;;4.10;2.22;;;15.50;66.60;;;;;;5074519;28;20062;-78
2021/06/01 01:13:18;;;;;;;4.40;2.70;;;14.60;66.10;;;;;;5080866;28;20518;-77
2021/06/01 01:15:49;;;;;;;5.22;2.70;;;14.60;66.30;;;;;;5085302;28;20177;-79
2021/06/01 01:18:19;;;;;;;3.22;2.22;;;14.60;66.40;;;;;;5088988;28;20390;-79
2021/06/01 01:20:59;;;;;;;3.70;2.20;;;14.50;66.30;;;;;;5083187;28;20031;-78
2021/06/01 01:23:28;;;;;;;2.92;2.33;;;14.50;66.80;;;;;;5084681;28;20037;-78
2021/06/01 01:26:13;;;;;;;5.25;2.60;;;15.00;67.70;;;;;;5086968;28;20024;-80
2021/06/01 01:29:04;;;;;;;4.78;2.55;;;14.40;67.20;;;;;;5082662;28;20507;-77
2021/06/01 01:31:36;;;;;;;3.28;2.35;;;14.40;67.50;;;;;;5085129;28;20450;-78
2021/06/01 01:34:04;;;;;;;3.42;2.33;;;14.40;67.60;;;;;;5086926;28;20105;-78
2021/06/01 01:36:31;;;;;;;6.25;2.92;;;14.20;67.70;;;;;;5086940;28;20024;-79
2021/06/01 01:39:00;;;;;;;5.30;2.60;;;14.30;67.80;;;;;;5085461;28;20060;-78
2021/06/01 01:41:26;;;;;;;5.35;2.55;;;14.30;67.80;;;;;;5085034;28;20036;-77
2021/06/01 01:43:56;;;;;;;4.00;2.30;;;15.20;68.40;;;;;;5087093;28;20053;-78
2021/06/01 01:46:52;;;;;;;14.48;5.78;;;14.20;67.50;;;;;;5088077;28;20081;-77
2021/06/01 01:49:21;;;;;;;4.05;2.10;;;14.30;67.90;;;;;;5084148;28;20089;-78
2021/06/01 01:51:51;;;;;;;5.32;2.92;;;14.20;68.30;;;;;;5088044;28;20035;-80
2021/06/01 01:54:20;;;;;;;5.85;3.10;;;14.30;69.20;;;;;;5083473;28;20028;-78
2021/06/01 01:56:50;;;;;;;6.50;3.00;;;15.20;70.50;;;;;;5087796;28;20034;-78
2021/06/01 01:59:18;;;;;;;7.18;2.97;;;14.10;69.80;;;;;;5084070;28;20036;-78
2021/06/01 02:01:47;;;;;;;3.53;2.40;;;14.10;70.00;;;;;;5089207;28;20588;-78
2021/06/01 02:04:18;;;;;;;4.35;2.53;;;14.10;69.00;;;;;;5083554;28;20032;-78
2021/06/01 02:06:46;;;;;;;4.10;2.58;;;14.10;68.90;;;;;;5085035;28;20107;-81
2021/06/01 02:09:13;;;;;;;3.72;2.40;;;14.00;68.20;;;;;;5086232;28;20106;-75
2021/06/01 02:11:39;;;;;;;3.28;2.30;;;14.00;69.20;;;;;;5090752;28;20409;-77
2021/06/01 02:14:05;;;;;;;4.00;2.60;;;14.00;68.80;;;;;;5091969;28;20028;-77
2021/06/01 02:16:34;;;;;;;4.93;2.58;;;13.90;68.80;;;;;;5091188;28;20135;-79
2021/06/01 02:19:00;;;;;;;3.63;2.50;;;13.90;69.10;;;;;;5084725;28;20026;-76
2021/06/01 02:22:18;;;;;;;3.88;2.53;;;14.00;69.40;;;;;;5084209;28;20047;-75
2021/06/01 02:24:31;;;;;;;3.30;2.33;;;15.00;71.60;;;;;;5080498;28;20039;-78
2021/06/01 02:27:07;;;;;;;4.18;2.88;;;13.80;71.60;;;;;;5085499;28;20066;-79
2021/06/01 02:30:02;;;;;;;4.75;2.63;;;13.70;71.80;;;;;;5087062;28;20020;-78
2021/06/01 02:32:41;;;;;;;3.83;2.42;;;13.80;72.00;;;;;;5086976;28;20066;-80
2021/06/01 02:35:10;;;;;;;4.13;2.70;;;13.80;71.90;;;;;;5086044;28;20028;-75
2021/06/01 02:37:41;;;;;;;5.65;2.90;;;13.70;72.10;;;;;;5080386;28;20020;-76
2021/06/01 02:40:12;;;;;;;3.55;2.58;;;13.70;72.10;;;;;;5083195;28;20352;-78
2021/06/01 02:42:40;;;;;;;3.65;2.70;;;13.60;72.20;;;;;;5083908;28;20032;-78
2021/06/01 02:45:08;;;;;;;5.20;3.35;;;14.40;72.90;;;;;;5084021;28;20040;-77
2021/06/01 02:47:34;;;;;;;4.72;2.83;;;13.60;72.50;;;;;;5084213;28;20085;-78
2021/06/01 02:50:04;;;;;;;3.70;2.58;;;13.60;72.90;;;;;;5080606;28;20024;-78
2021/06/01 02:52:30;;;;;;;4.20;2.47;;;13.50;72.60;;;;;;5085329;28;20516;-78
2021/06/01 02:54:58;;;;;;;4.45;2.60;;;13.40;71.80;;;;;;5083572;28;20207;-77
2021/06/01 02:57:24;;;;;;;5.03;2.45;;;13.50;71.30;;;;;;5086722;28;20540;-77
2021/06/01 02:59:50;;;;;;;4.55;2.78;;;13.60;71.70;;;;;;5082592;28;20028;-77
2021/06/01 03:02:16;;;;;;;4.40;2.35;;;13.40;72.00;;;;;;5083272;28;20028;-77
2021/06/01 03:04:49;;;;;;;3.75;2.40;;;13.50;72.20;;;;;;5087363;28;20084;-77
2021/06/01 03:07:16;;;;;;;5.43;2.60;;;13.60;72.60;;;;;;5084394;28;20028;-76
2021/06/01 03:09:41;;;;;;;4.88;3.08;;;13.50;71.80;;;;;;5082270;28;20051;-77
2021/06/01 03:12:08;;;;;;;3.88;2.70;;;13.50;72.30;;;;;;5085675;28;20059;-77
2021/06/01 03:14:34;;;;;;;4.55;3.05;;;13.50;72.30;;;;;;5081984;28;20016;-78
2021/06/01 03:16:59;;;;;;;3.22;2.33;;;13.50;72.60;;;;;;5083322;28;20089;-78
2021/06/01 03:19:25;;;;;;;4.20;2.72;;;13.50;72.70;;;;;;5080238;28;20023;-78
2021/06/01 03:21:50;;;;;;;5.30;2.47;;;13.50;72.60;;;;;;5085968;28;20016;-77
2021/06/01 03:24:16;;;;;;;3.92;2.80;;;;;;;;;;5086677;28;20042;-78
2021/06/01 03:26:42;;;;;;;4.22;2.45;;;13.40;72.30;;;;;;5084150;28;20034;-78
2021/06/01 03:29:08;;;;;;;4.35;2.67;;;13.30;72.70;;;;;;5101006;28;20050;-78
2021/06/01 03:31:33;;;;;;;4.10;2.58;;;13.30;73.10;;;;;;5085443;28;20047;-78
2021/06/01 03:33:59;;;;;;;3.78;2.60;;;13.30;73.30;;;;;;5083756;28;20401;-78
2021/06/01 03:36:24;;;;;;;3.97;2.53;;;13.30;73.60;;;;;;5081446;28;20036;-79
2021/06/01 03:38:51;;;;;;;3.38;2.25;;;13.30;73.40;;;;;;5089258;28;20024;-76
2021/06/01 03:41:18;;;;;;;4.32;3.22;;;13.30;72.80;;;;;;5083389;28;20390;-78
2021/06/01 03:43:44;;;;;;;4.13;2.30;;;13.20;72.60;;;;;;5085974;28;20089;-78
2021/06/01 03:46:09;;;;;;;3.38;2.08;;;13.20;72.60;;;;;;5109359;28;20432;-76
2021/06/01 03:48:35;;;;;;;4.38;2.35;;;15.30;73.70;;;;;;5085516;28;20521;-77
2021/06/01 03:51:00;;;;;;;3.30;2.40;;;13.20;72.60;;;;;;5063389;28;20064;-77
2021/06/01 03:53:28;;;;;;;3.67;2.65;;;13.10;72.80;;;;;;5083243;28;20070;-77
2021/06/01 03:55:54;;;;;;;3.40;2.38;;;13.10;73.00;;;;;;5081743;28;20024;-77
2021/06/01 03:58:20;;;;;;;4.43;2.53;;;13.10;72.90;;;;;;5085708;28;20381;-77
2021/06/01 04:00:46;;;;;;;3.17;2.28;;;13.10;73.00;;;;;;5083861;28;20561;-78
2021/06/01 04:03:12;;;;;;;4.15;2.60;;;13.10;73.30;;;;;;5083085;28;20110;-78
2021/06/01 04:05:37;;;;;;;4.47;2.80;;;13.10;73.50;;;;;;5082053;28;20112;-78
2021/06/01 04:08:05;;;;;;;3.83;2.45;;;14.30;74.10;;;;;;5084530;28;20391;-78
2021/06/01 04:10:34;;;;;;;5.57;2.47;;;13.10;74.00;;;;;;5084444;28;20024;-78
2021/06/01 04:12:59;;;;;;;6.40;2.55;;;13.10;73.60;;;;;;5083457;28;20067;-77
2021/06/01 04:15:25;;;;;;;6.10;2.40;;;13.10;73.70;;;;;;5083485;28;20482;-76
2021/06/01 04:17:51;;;;;;;4.60;2.60;;;13.10;73.30;;;;;;5086953;28;20567;-78
2021/06/01 04:20:17;;;;;;;4.55;3.03;;;13.10;74.40;;;;;;5085477;28;20032;-77
2021/06/01 04:22:44;;;;;;;4.13;2.72;;;13.10;75.20;;;;;;5085714;28;20089;-78
2021/06/01 04:25:10;;;;;;;4.97;3.00;;;13.10;75.60;;;;;;5082120;28;20530;-78
2021/06/01 04:27:36;;;;;;;4.20;2.97;;;13.10;75.10;;;;;;5083180;28;20059;-78
2021/06/01 04:30:04;;;;;;;7.30;3.90;;;13.10;75.50;;;;;;5088150;28;20387;-78
2021/06/01 04:32:30;;;;;;;4.63;2.90;;;13.10;75.60;;;;;;5084438;28;20429;-78
2021/06/01 04:34:55;;;;;;;5.40;2.75;;;13.20;75.30;;;;;;5085121;28;20031;-78
2021/06/01 04:37:21;;;;;;;5.43;2.88;;;13.20;74.00;;;;;;5084045;28;20509;-78
2021/06/01 04:39:47;;;;;;;3.95;2.45;;;13.20;74.30;;;;;;5081746;28;20115;-78
2021/06/01 04:42:12;;;;;;;3.50;2.45;;;13.20;74.70;;;;;;5086662;28;20599;-77
2021/06/01 04:44:38;;;;;;;4.55;2.45;;;13.30;73.90;;;;;;5086167;28;20020;-77
2021/06/01 04:47:04;;;;;;;5.57;2.50;;;13.20;73.70;;;;;;5087239;28;20028;-77
2021/06/01 04:49:30;;;;;;;3.97;2.50;;;13.50;73.70;;;;;;5089682;28;20028;-77
2021/06/01 04:51:55;;;;;;;3.97;2.40;;;13.40;73.60;;;;;;5084289;28;20028;-77
2021/06/01 04:54:21;;;;;;;4.10;2.72;;;13.50;73.20;;;;;;5085637;28;20085;-76
2021/06/01 04:56:46;;;;;;;3.13;2.42;;;13.50;73.30;;;;;;5082388;28;20035;-77
2021/06/01 04:59:14;;;;;;;4.28;2.40;;;14.50;73.30;;;;;;5086797;28;20028;-78
2021/06/01 05:01:40;;;;;;;3.58;2.58;;;13.60;72.60;;;;;;5091802;28;20032;-77
2021/06/01 05:04:05;;;;;;;3.72;2.38;;;14.40;73.00;;;;;;5091036;28;20038;-78
2021/06/01 05:06:32;;;;;;;4.22;2.67;;;13.70;72.30;;;;;;5090222;28;20099;-78
2021/06/01 05:09:00;;;;;;;3.97;2.50;;;13.80;72.20;;;;;;5089120;28;20111;-77
2021/06/01 05:11:26;;;;;;;5.53;2.67;;;13.90;71.90;;;;;;5086519;28;20827;-78
2021/06/01 05:13:52;;;;;;;3.60;2.58;;;14.00;71.80;;;;;;5088834;28;20067;-77
2021/06/01 05:16:17;;;;;;;6.00;2.40;;;15.20;71.70;;;;;;5089862;28;20077;-76
2021/06/01 05:18:43;;;;;;;3.53;2.38;;;14.10;71.10;;;;;;5087378;28;20020;-77
2021/06/01 05:21:09;;;;;;;4.45;2.72;;;15.20;67.60;;;;;;5087378;28;20069;-79
2021/06/01 05:23:35;;;;;;;4.50;2.60;;;16.50;63.50;;;;;;5085884;28;20028;-77
2021/06/01 05:26:01;;;;;;;5.18;2.75;;;16.70;63.70;;;;;;5090344;28;20024;-77
2021/06/01 05:28:27;;;;;;;4.63;2.40;;;18.10;60.20;;;;;;5089669;28;20030;-78
2021/06/01 05:33:33;;;;;;;3.80;2.17;;;19.60;55.10;;;;;;5088700;28;20035;-77
2021/06/01 05:35:58;;;;;;;3.28;2.30;;;20.10;53.40;;;;;;5084861;28;20020;-77
2021/06/01 05:38:26;;;;;;;8.50;2.22;;;20.50;52.50;;;;;;5088089;28;20043;-76
2021/06/01 05:40:52;;;;;;;3.03;2.30;;;21.30;50.40;;;;;;5082508;28;20028;-77
2021/06/01 05:43:18;;;;;;;4.13;2.35;;;21.70;50.00;;;;;;5085030;28;20122;-77
2021/06/01 05:45:44;;;;;;;3.58;2.10;;;22.10;48.30;;;;;;5085741;28;20059;-76
2021/06/01 05:48:11;;;;;;;4.25;2.28;;;21.90;48.40;;;;;;5084709;28;20469;-79
2021/06/01 05:50:37;;;;;;;3.95;2.30;;;21.90;47.80;;;;;;5084333;28;20039;-76
2021/06/01 05:53:07;;;;;;;3.25;2.05;;;21.70;48.60;;;;;;5091275;28;20028;-78
2021/06/01 05:55:34;;;;;;;2.95;1.80;;;22.00;47.80;;;;;;5084405;28;20077;-78
2021/06/01 05:58:00;;;;;;;2.97;2.00;;;21.90;46.90;;;;;;5083826;28;20043;-78
2021/06/01 06:00:30;;;;;;;5.35;2.30;;;21.70;47.70;;;;;;5084280;28;20064;-77
2021/06/01 06:02:57;;;;;;;4.45;2.55;;;21.70;48.00;;;;;;5087741;28;20042;-77
2021/06/01 06:05:23;;;;;;;5.53;2.25;;;21.70;48.80;;;;;;5081906;28;20028;-79
2021/06/01 06:07:49;;;;;;;3.13;1.92;;;22.30;48.00;;;;;;5088353;28;20128;-79
2021/06/01 06:10:15;;;;;;;4.53;2.10;;;21.90;47.70;;;;;;5085883;28;20077;-77
2021/06/01 06:12:46;;;;;;;2.70;2.03;;;21.60;48.50;;;;;;5086253;28;20169;-77
2021/06/01 06:15:17;;;;;;;3.20;2.08;;;21.50;49.00;;;;;;5087304;28;20050;-77
2021/06/01 06:17:52;;;;;;;3.10;2.10;;;21.30;49.20;;;;;;5088860;28;20425;-77
2021/06/01 06:20:18;;;;;;;3.42;2.05;;;21.20;49.00;;;;;;5088435;28;20019;-77
2021/06/01 06:22:46;;;;;;;3.13;2.10;;;20.30;50.40;;;;;;5104892;27;20024;-78
2021/06/01 06:25:13;;;;;;;2.22;1.70;;;19.80;51.80;;;;;;5086938;28;20032;-78
2021/06/01 06:27:39;;;;;;;2.75;2.03;;;19.40;53.10;;;;;;5085480;28;20039;-77
2021/06/01 06:30:10;;;;;;;4.22;2.28;;;19.20;53.40;;;;;;5082529;28;20414;-77
2021/06/01 06:32:36;;;;;;;2.95;2.05;;;19.50;53.20;;;;;;5082405;28;20039;-78
2021/06/01 06:35:03;;;;;;;3.28;1.90;;;19.60;52.60;;;;;;5091238;28;20449;-78
2021/06/01 06:37:29;;;;;;;2.90;2.10;;;19.70;52.60;;;;;;5084376;28;20028;-77
2021/06/01 06:39:55;;;;;;;3.10;2.10;;;;;;;;;;5079593;28;20207;-75
2021/06/01 06:42:20;;;;;;;3.45;2.13;;;19.10;52.80;;;;;;5082885;28;20035;-79
2021/06/01 06:44:50;;;;;;;3.47;2.30;;;19.20;53.40;;;;;;5083401;28;21538;-78
2021/06/01 06:49:43;;;;;;;2.35;1.73;;;;;;;;;;5079866;28;20032;-78
2021/06/01 06:52:10;;;;;;;3.05;2.10;;;18.70;54.00;;;;;;5079261;28;20089;-78
2021/06/01 06:54:36;;;;;;;3.85;2.13;;;18.50;54.60;;;;;;5076890;28;20044;-78
2021/06/01 06:57:03;;;;;;;4.13;2.40;;;18.50;55.30;;;;;;5079380;28;20024;-77
2021/06/01 06:59:29;;;;;;;3.33;1.90;;;;;;;;;;5080748;28;20559;-77
2021/06/01 07:01:54;;;;;;;2.45;1.83;;;18.50;55.30;;;;;;5081258;28;20024;-79
2021/06/01 07:04:21;;;;;;;3.03;1.90;;;18.50;55.60;;;;;;5080586;28;20039;-77
2021/06/01 07:06:48;;;;;;;3.05;2.10;;;;;;;;;;5083208;28;20232;-77
2021/06/01 07:09:15;;;;;;;2.95;2.05;;;18.70;54.90;;;;;;5085168;28;20027;-77
2021/06/01 07:11:41;;;;;;;3.85;1.70;;;;;;;;;;5079608;28;20032;-78
2021/06/01 07:14:09;;;;;;;8.63;1.70;;;19.00;54.30;;;;;;5096988;28;20042;-78
2021/06/01 07:16:35;;;;;;;2.80;1.70;;;19.00;54.70;;;;;;5090963;28;20023;-75
2021/06/01 07:19:01;;;;;;;2.72;1.55;;;18.90;54.30;;;;;;5078386;28;20477;-77
2021/06/01 07:21:27;;;;;;;4.25;1.90;;;;;;;;;;5099443;28;20024;-78
2021/06/01 07:23:53;;;;;;;2.85;1.90;;;18.90;53.40;;;;;;5081079;28;20036;-78
2021/06/01 07:26:18;;;;;;;3.00;1.70;;;18.90;53.80;;;;;;5081304;28;20089;-78
2021/06/01 07:28:44;;;;;;;4.63;1.60;;;19.00;53.40;;;;;;5082733;28;20490;-79
2021/06/01 07:31:14;;;;;;;2.60;1.60;;;19.10;53.00;;;;;;5083743;28;20134;-77
2021/06/01 07:33:44;;;;;;;3.20;1.70;;;19.10;53.20;;;;;;5079457;28;20031;-77
2021/06/01 07:36:10;;;;;;;3.25;1.40;;;;;;;;;;5082470;28;20056;-78
2021/06/01 07:38:36;;;;;;;3.70;2.00;;;;;;;;;;5082431;28;20088;-77
2021/06/01 07:41:03;;;;;;;4.13;1.65;;;19.20;52.10;;;;;;5083856;28;20517;-77
2021/06/01 07:43:30;;;;;;;2.80;1.70;;;21.00;53.50;;;;;;5081961;28;20803;-77
2021/06/01 07:45:56;;;;;;;2.50;1.80;;;21.20;53.40;;;;;;5080319;28;20084;-76
2021/06/01 07:48:22;;;;;;;5.25;1.73;;;19.20;51.90;;;;;;5077194;28;20024;-78
2021/06/01 07:50:50;;;;;;;4.25;1.60;;;19.40;51.80;;;;;;5094281;28;20032;-75
2021/06/01 07:53:16;;;;;;;3.58;1.70;;;19.30;51.60;;;;;;5076898;28;20120;-76
2021/06/01 07:55:42;;;;;;;1.92;1.40;;;19.50;51.30;;;;;;5079843;28;20020;-77
2021/06/01 07:58:07;;;;;;;2.55;1.70;;;19.50;51.80;;;;;;5076352;28;22375;-77
2021/06/01 08:00:33;;;;;;;5.40;1.55;;;19.70;50.50;;;;;;5079592;28;20589;-77
2021/06/01 08:02:59;;;;;;;4.35;1.70;;;19.80;49.90;;;;;;5075746;28;20032;-76
2021/06/01 08:05:25;;;;;;;2.78;1.40;;;19.90;47.90;;;;;;5077436;28;20778;-77
2021/06/01 08:07:51;;;;;;;2.78;1.30;;;20.00;48.60;;;;;;5085581;28;20032;-78
2021/06/01 08:10:18;;;;;;;2.10;1.30;;;20.20;48.70;;;;;;5080243;28;20467;-77
2021/06/01 08:12:44;;;;;;;2.13;1.50;;;;;;;;;;5086865;28;20114;-77
2021/06/01 08:15:11;;;;;;;2.88;1.40;;;20.30;47.10;;;;;;5084213;28;20040;-77
2021/06/01 08:17:36;;;;;;;2.97;1.50;;;20.30;45.30;;;;;;5088634;28;20027;-77
2021/06/01 08:20:14;;;;;;;2.03;1.30;;;20.40;45.60;;;;;;5085798;28;20029;-78
2021/06/01 08:22:41;;;;;;;2.78;1.80;;;20.40;46.10;;;;;;5085776;28;20089;-77
2021/06/01 08:25:08;;;;;;;1.80;1.20;;;20.50;45.50;;;;;;5089313;28;20797;-76
2021/06/01 08:27:34;;;;;;;2.53;1.50;;;20.50;45.70;;;;;;5089272;28;20020;-76
2021/06/01 08:29:59;;;;;;;4.38;1.40;;;20.60;45.40;;;;;;5083591;28;20406;-77
2021/06/01 08:32:25;;;;;;;2.92;1.40;;;20.60;43.60;;;;;;5089866;28;20111;-79
2021/06/01 08:34:51;;;;;;;2.90;1.40;;;20.80;43.90;;;;;;5087542;28;20030;-77
2021/06/01 08:37:17;;;;;;;2.60;1.23;;;20.80;43.90;;;;;;5089614;28;20036;-76
2021/06/01 08:39:42;;;;;;;2.00;1.25;;;20.90;44.00;;;;;;5087317;28;20020;-77
2021/06/01 08:42:08;;;;;;;3.15;1.50;;;20.90;44.40;;;;;;5089661;28;20024;-78
2021/06/01 08:44:34;;;;;;;2.25;1.23;;;20.90;44.00;;;;;;5086379;28;20024;-77
2021/06/01 08:47:01;;;;;;;1.67;1.17;;;21.00;44.20;;;;;;5085505;28;20104;-78
2021/06/01 08:49:27;;;;;;;3.15;1.73;;;21.20;43.50;;;;;;5079748;28;20039;-78
2021/06/01 08:51:52;;;;;;;2.63;1.30;;;21.10;42.70;;;;;;5086793;28;20036;-77
2021/06/01 08:54:20;;;;;;;3.33;1.42;;;23.00;44.10;;;;;;5079024;28;20149;-78
2021/06/01 08:56:46;;;;;;;2.10;1.27;;;21.10;43.40;;;;;;5081230;28;20548;-78
2021/06/01 08:59:13;;;;;;;1.55;1.23;;;21.70;43.50;;;;;;5093075;28;20020;-78
2021/06/01 09:01:44;;;;;;;2.88;1.83;;;21.30;43.10;;;;;;5093754;27;20024;-78
2021/06/01 09:04:13;;;;;;;2.28;1.52;;;21.40;43.30;;;;;;5090242;28;20474;-78
2021/06/01 09:06:44;;;;;;;2.95;1.23;;;22.70;43.20;;;;;;5106210;28;20038;-78
2021/06/01 09:22:28;;;;;;;2.65;1.48;;;21.90;40.70;;;;;;5094447;28;20028;-78
2021/06/01 09:25:01;;;;;;;3.65;1.70;;;21.90;41.20;;;;;;5089289;28;20027;-78
2021/06/01 09:27:30;;;;;;;1.95;1.30;;;;;;;;;;5088958;28;20036;-78
2021/06/01 09:29:56;;;;;;;4.68;1.77;;;21.90;40.20;;;;;;5084749;28;20043;-77
2021/06/01 09:32:23;;;;;;;3.90;1.40;;;21.90;40.60;;;;;;5086272;28;20030;-77
2021/06/01 09:34:49;;;;;;;2.10;1.30;;;21.90;40.20;;;;;;5091761;28;20469;-78
2021/06/01 09:37:16;;;;;;;1.65;1.30;;;22.10;40.00;;;;;;5091743;28;20020;-79
2021/06/01 09:39:42;;;;;;;1.98;1.30;;;22.10;39.20;;;;;;5091847;28;20024;-78
2021/06/01 09:42:28;;;;;;;3.47;1.30;;;22.30;39.00;;;;;;5086383;28;20040;-76
2021/06/01 09:45:11;;;;;;;2.00;1.27;;;22.40;39.30;;;;;;5095978;28;20502;-77
2021/06/01 09:47:57;;;;;;;3.42;1.25;;;22.60;37.90;;;;;;5105711;28;20437;-77
2021/06/01 09:53:35;;;;;;;1.48;1.10;;;22.80;38.20;;;;;;5092269;28;20039;-79
2021/06/01 09:56:02;;;;;;;1.58;1.15;;;22.80;37.50;;;;;;5082116;28;20478;-77
2021/06/01 09:58:32;;;;;;;6.45;1.50;;;22.90;38.30;;;;;;5090413;28;20157;-77
2021/06/01 10:00:59;;;;;;;2.20;1.23;;;22.90;38.50;;;;;;5086071;28;20100;-78
2021/06/01 10:03:32;;;;;;;2.00;1.25;;;22.90;37.80;;;;;;5088703;28;20045;-77
2021/06/01 10:05:58;;;;;;;1.20;1.10;;;22.90;38.20;;;;;;5084964;28;20028;-75
2021/06/01 10:08:27;;;;;;;2.78;1.15;;;24.80;39.20;;;;;;5082661;28;20028;-80
2021/06/01 10:11:10;;;;;;;3.20;1.10;;;23.10;37.50;;;;;;5084562;28;20047;-79
2021/06/01 10:13:38;;;;;;;2.83;1.10;;;23.30;36.50;;;;;;5090426;28;20024;-76
2021/06/01 10:16:06;;;;;;;1.60;1.10;;;23.40;36.20;;;;;;5088948;28;20092;-79
2021/06/01 10:18:32;;;;;;;1.30;1.02;;;23.50;36.50;;;;;;5090364;28;20111;-76
2021/06/01 10:21:03;;;;;;;1.80;1.10;;;23.50;36.10;;;;;;5085293;28;20594;-78
2021/06/01 10:23:33;;;;;;;1.30;1.10;;;23.60;36.50;;;;;;5089192;28;20028;-78
2021/06/01 10:25:59;;;;;;;1.73;1.20;;;25.20;36.80;;;;;;5093491;28;20036;-76
2021/06/01 10:28:34;;;;;;;2.92;1.30;;;23.80;36.80;;;;;;5093597;28;20028;-79
2021/06/01 10:31:01;;;;;;;2.03;1.20;;;23.70;37.40;;;;;;5080573;28;20035;-79
2021/06/01 10:33:34;;;;;;;1.67;1.30;;;23.60;37.00;;;;;;5091137;28;20111;-79
2021/06/01 10:36:29;;;;;;;2.28;1.20;;;23.90;34.50;;;;;;5089053;28;20490;-78
2021/06/01 10:50:28;;;;;;;5.43;2.15;;;23.50;35.60;;;;;;5084800;28;20118;-78
2021/06/01 10:53:34;;;;;;;2.85;1.20;;;23.70;34.50;;;;;;5084360;28;20047;-77
2021/06/01 10:56:02;;;;;;;1.35;1.05;;;23.60;34.90;;;;;;5085132;28;20773;-78
2021/06/01 10:58:35;;;;;;;2.28;1.20;;;23.80;35.50;;;;;;5096024;28;20035;-78
2021/06/01 11:04:04;;;;;;;1.88;1.20;;;24.00;34.70;;;;;;5084623;28;20101;-80
2021/06/01 11:06:54;;;;;;;2.22;1.20;;;24.10;34.20;;;;;;5086825;28;20023;-79
2021/06/01 11:09:44;;;;;;;2.17;1.10;;;24.00;34.90;;;;;;5087178;28;20031;-79
2021/06/01 11:12:17;;;;;;;2.80;1.30;;;24.10;35.50;;;;;;5089392;28;20020;-78
2021/06/01 11:14:43;;;;;;;2.67;1.13;;;24.50;35.50;;;;;;5084061;28;20490;-80
2021/06/01 11:17:09;;;;;;;3.38;1.17;;;24.40;35.00;;;;;;5084814;28;20028;-79
2021/06/01 11:19:59;;;;;;;2.15;1.55;;;24.50;35.50;;;;;;5085453;28;20028;-80
2021/06/01 11:33:21;;;;;;;4.80;1.17;;;24.90;34.80;;;;;;5085412;28;20035;-82
2021/06/01 11:35:55;;;;;;;2.60;1.25;;;24.90;33.60;;;;;;5087485;28;20506;-81
2021/06/01 11:38:30;;;;;;;2.03;1.30;;;24.90;34.60;;;;;;5092010;28;20031;-80
2021/06/01 11:43:42;;;;;;;2.40;1.35;;;24.70;35.80;;;;;;5088121;28;20067;-81
2021/06/01 11:51:22;;;;;;;1.70;1.20;;;24.00;36.40;;;;;;5094547;28;20036;-78
2021/06/01 11:54:01;;;;;;;1.85;1.40;;;24.20;36.20;;;;;;5095561;28;20062;-80
2021/06/01 12:02:12;;;;;;;2.60;1.52;;;24.90;35.50;;;;;;5085614;28;20086;-80
2021/06/01 12:18:29;;;;;;;2.65;1.27;;;26.30;36.60;;;;;;5085667;28;20036;-80
2021/06/01 12:20:55;;;;;;;2.20;1.52;;;25.60;36.40;;;;;;5090153;28;20081;-80
2021/06/01 12:23:24;;;;;;;1.73;1.20;;;24.90;35.70;;;;;;5088138;28;20032;-79
2021/06/01 12:26:20;;;;;;;1.63;1.20;;;24.90;35.40;;;;;;5092203;28;20027;-77
2021/06/01 12:32:04;;;;;;;2.35;1.50;;;25.60;36.20;;;;;;5093328;28;20085;-79
2021/06/01 12:43:26;;;;;;;4.15;1.73;;;25.90;36.00;;;;;;5080796;28;20050;-78
2021/06/01 13:14:43;;;;;;;3.08;1.75;;;25.70;36.10;;;;;;5052808;28;20044;-80
2021/06/01 13:39:19;;;;;;;3.05;1.77;;;25.90;36.00;;;;;;5051951;28;20060;-82
2021/06/01 13:47:13;;;;;;;3.45;1.30;;;;;;;;;;5053427;28;20584;-81
2021/06/01 13:49:51;;;;;;;1.33;1.13;;;25.80;35.50;;;;;;5031069;28;20029;-79
2021/06/01 13:55:21;;;;;;;2.80;1.60;;;26.10;36.20;;;;;;5052858;28;20041;-79
2021/06/01 14:00:38;;;;;;;3.05;1.70;;;26.20;36.10;;;;;;5053640;28;20033;-81
2021/06/01 14:30:31;;;;;;;2.72;1.65;;;25.90;33.20;;;;;;5062893;28;20487;-79
2021/06/01 14:35:52;;;;;;;2.40;1.20;;;25.80;32.40;;;;;;5052201;28;20040;-81
2021/06/01 15:31:14;;;;;;;1.80;1.17;;;25.70;34.30;;;;;;5045437;28;20048;-81
2021/06/01 15:49:30;;;;;;;2.00;1.38;;;26.00;31.60;;;;;;5054747;28;20453;-82
2021/06/01 16:14:08;;;;;;;2.70;1.30;;;25.90;32.40;;;;;;5049460;28;20029;-82
2021/06/01 16:44:09;;;;;;;3.15;1.58;;;26.30;33.00;;;;;;5055664;28;20048;-81
2021/06/01 17:03:11;;;;;;;2.20;1.38;;;26.20;35.00;;;;;;5045138;28;20048;-82
2021/06/01 17:05:42;;;;;;;3.42;1.58;;;;;;;;;;5025298;28;20312;-78
2021/06/01 17:11:19;;;;;;;2.88;1.65;;;26.20;35.60;;;;;;5052071;28;20025;-81
2021/06/01 17:14:01;;;;;;;2.17;1.52;;;27.00;36.00;;;;;;5056217;28;20037;-81
2021/06/01 17:35:14;;;;;;;3.28;1.70;;;26.60;34.50;;;;;;5054601;28;20037;-80
2021/06/01 17:37:40;;;;;;;3.97;1.80;;;;;;;;;;5041324;28;20017;-78
2021/06/01 17:40:13;;;;;;;4.03;1.58;;;26.20;34.50;;;;;;5055556;28;20025;-83
2021/06/01 17:42:49;;;;;;;2.10;1.40;;;26.20;34.60;;;;;;5041639;28;20116;-79
2021/06/01 17:45:17;;;;;;;2.40;1.70;;;26.20;34.50;;;;;;5059064;28;20028;-80
2021/06/01 17:47:59;;;;;;;3.08;1.70;;;26.20;34.80;;;;;;5040035;28;20032;-81
2021/06/01 17:50:26;;;;;;;2.85;1.70;;;;;;;;;;5054765;28;20025;-81
2021/06/01 17:52:56;;;;;;;2.45;1.55;;;25.30;34.40;;;;;;5042279;28;20380;-80
2021/06/01 17:55:23;;;;;;;2.33;1.75;;;25.10;35.00;;;;;;5049261;28;20076;-81
2021/06/01 17:57:50;;;;;;;3.75;1.80;;;25.00;35.40;;;;;;5065283;28;20021;-78
2021/06/01 18:00:17;;;;;;;2.50;1.63;;;24.90;35.90;;;;;;5043738;28;20021;-80
2021/06/01 18:02:47;;;;;;;3.10;1.70;;;24.80;36.40;;;;;;5065653;28;20021;-80
2021/06/01 18:05:15;;;;;;;2.25;1.45;;;24.70;36.30;;;;;;5058526;28;20095;-78
2021/06/01 19:24:39;;;;;;;4.13;2.00;;;23.10;41.90;;;;;;5063875;28;20544;-82
2021/06/01 19:52:09;;;;;;;4.30;2.38;;;21.80;44.90;;;;;;5057402;28;20067;-83
2021/06/01 19:54:35;;;;;;;4.22;2.30;;;;;;;;;;5046895;28;20493;-79
2021/06/01 19:57:01;;;;;;;2.83;2.08;;;21.70;45.40;;;;;;5041949;28;20388;-79
2021/06/01 19:59:28;;;;;;;4.07;2.00;;;21.70;46.10;;;;;;5062572;28;20029;-80
2021/06/01 20:02:00;;;;;;;2.95;1.95;;;21.60;45.80;;;;;;5043768;28;20588;-79
2021/06/01 20:04:28;;;;;;;3.00;1.88;;;21.40;45.60;;;;;;5057635;28;20036;-79
2021/06/01 20:06:54;;;;;;;2.38;1.67;;;;;;;;;;5038052;28;20030;-82
2021/06/01 20:09:20;;;;;;;2.80;1.75;;;21.10;46.00;;;;;;5047642;28;20040;-82
2021/06/01 20:11:47;;;;;;;3.47;2.05;;;;;;;;;;5049943;28;20246;-81
2021/06/01 20:14:13;;;;;;;3.20;1.92;;;21.00;46.20;;;;;;5049137;28;20032;-81
2021/06/01 20:16:47;;;;;;;3.42;2.10;;;20.90;47.30;;;;;;5059945;28;20422;-81
2021/06/01 20:19:17;;;;;;;4.28;2.38;;;20.60;47.20;;;;;;5041050;28;20068;-80
2021/06/01 20:21:46;;;;;;;4.85;2.13;;;20.60;47.70;;;;;;5049129;28;20021;-81